Time;durP1;ratioP1;P1;durP2;ratioP2;P2;SDS_P1;SDS_P2;PMS_P1;PMS_P2;Temp;Humidity;BMP_temperature;BMP_pressure;BME280_temperature;BME280_humidity;BME280_pressure;Samples;Min_cycle;Max_cycle;Signal;HPM_P1;HPM_P2
2022/05/07 00:02:06;;;;;;;;;;;19.10;60.80;;;;;;5086486;28;1267;-68
2022/05/07 00:04:32;;;;;;;;;;;19.10;60.80;;;;;;5089594;28;1327;-68
2022/05/07 00:06:58;;;;;;;;;;;19.10;60.80;;;;;;5073888;28;1253;-68
2022/05/07 00:09:24;;;;;;;;;;;19.10;60.90;;;;;;5091569;28;1971;-67
2022/05/07 00:11:49;;;;;;;;;;;19.10;60.80;;;;;;5057149;28;1346;-68
2022/05/07 00:14:15;;;;;;;;;;;19.10;60.90;;;;;;5091928;28;1389;-67
2022/05/07 00:19:24;;;;;;;;;;;19.10;61.00;;;;;;5081422;28;1080;-68
2022/05/07 00:21:50;;;;;;;;;;;19.10;60.90;;;;;;5073517;28;1267;-67
2022/05/07 00:24:15;;;;;;;;;;;19.10;61.00;;;;;;5071634;28;1422;-67
2022/05/07 00:26:41;;;;;;;;;;;19.10;61.00;;;;;;5071793;28;1243;-69
2022/05/07 00:29:06;;;;;;;;;;;19.10;61.00;;;;;;5072960;28;1906;-69
2022/05/07 00:31:31;;;;;;;;;;;19.10;61.00;;;;;;5071251;28;1298;-68
2022/05/07 00:33:57;;;;;;;;;;;19.10;61.00;;;;;;5074262;28;1276;-68
2022/05/07 00:36:23;;;;;;;;;;;19.10;61.10;;;;;;5076392;28;1235;-67
2022/05/07 00:38:48;;;;;;;;;;;19.10;61.00;;;;;;5084333;28;1322;-68
2022/05/07 00:41:14;;;;;;;;;;;19.10;61.10;;;;;;5098917;28;1290;-68
2022/05/07 00:43:41;;;;;;;;;;;19.10;61.10;;;;;;5116321;28;1298;-68
2022/05/07 00:46:06;;;;;;;;;;;19.10;61.20;;;;;;5116159;28;857;-68
2022/05/07 00:48:32;;;;;;;;;;;19.10;61.20;;;;;;5096292;28;1026;-68
2022/05/07 00:53:42;;;;;;;;;;;19.00;61.10;;;;;;5115813;28;1200;-68
2022/05/07 00:56:07;;;;;;;;;;;19.10;61.20;;;;;;5097621;28;1007;-68
2022/05/07 00:58:33;;;;;;;;;;;19.10;61.20;;;;;;5097409;28;1164;-68
2022/05/07 01:00:59;;;;;;;;;;;19.10;61.20;;;;;;5097234;28;899;-68
2022/05/07 01:03:24;;;;;;;;;;;19.10;61.20;;;;;;5115609;28;1307;-68
2022/05/07 01:05:50;;;;;;;;;;;19.10;61.20;;;;;;5097540;28;845;-68
2022/05/07 01:08:15;;;;;;;;;;;19.10;61.20;;;;;;5115563;28;867;-68
2022/05/07 01:10:40;;;;;;;;;;;19.00;61.20;;;;;;5097067;28;1969;-68
2022/05/07 01:13:07;;;;;;;;;;;19.10;61.20;;;;;;5115740;28;848;-68
2022/05/07 01:15:41;;;;;;;;;;;19.10;61.30;;;;;;5115308;28;785;-68
2022/05/07 01:18:07;;;;;;;;;;;19.00;61.20;;;;;;5090683;28;1307;-68
2022/05/07 01:20:33;;;;;;;;;;;19.10;61.30;;;;;;5076903;28;912;-68
2022/05/07 01:23:00;;;;;;;;;;;19.10;61.30;;;;;;5095379;28;809;-68
2022/05/07 01:25:25;;;;;;;;;;;19.10;61.30;;;;;;5076816;28;1297;-68
2022/05/07 01:27:50;;;;;;;;;;;19.10;61.30;;;;;;5076643;28;932;-68
2022/05/07 01:30:16;;;;;;;;;;;19.10;61.30;;;;;;5094116;28;1980;-68
2022/05/07 01:32:41;;;;;;;;;;;19.00;61.20;;;;;;5085831;28;1156;-68
2022/05/07 01:35:07;;;;;;;;;;;19.10;61.30;;;;;;5075250;28;2459;-68
2022/05/07 01:37:32;;;;;;;;;;;19.10;61.30;;;;;;5090480;28;1278;-68
2022/05/07 01:39:58;;;;;;;;;;;19.00;61.30;;;;;;5074868;28;1193;-68
2022/05/07 01:42:23;;;;;;;;;;;19.10;61.40;;;;;;5072781;28;1307;-68
2022/05/07 01:44:49;;;;;;;;;;;19.00;62.10;;;;;;5073773;28;1315;-68
2022/05/07 01:49:58;;;;;;;;;;;19.10;61.40;;;;;;5073958;28;1910;-68
2022/05/07 01:52:24;;;;;;;;;;;19.10;61.50;;;;;;5074162;28;991;-68
2022/05/07 01:54:49;;;;;;;;;;;19.00;61.30;;;;;;5072860;28;1252;-68
2022/05/07 01:57:15;;;;;;;;;;;19.00;61.40;;;;;;5073754;28;947;-68
2022/05/07 01:59:40;;;;;;;;;;;19.00;61.40;;;;;;5083249;28;1203;-68
2022/05/07 02:02:06;;;;;;;;;;;19.00;61.40;;;;;;5084810;28;1325;-67
2022/05/07 02:04:31;;;;;;;;;;;19.10;61.50;;;;;;5072086;28;1440;-67
2022/05/07 02:06:57;;;;;;;;;;;19.00;61.40;;;;;;5083267;28;1223;-68
2022/05/07 02:09:22;;;;;;;;;;;19.10;61.50;;;;;;5074031;28;1905;-67
2022/05/07 02:11:48;;;;;;;;;;;19.10;61.50;;;;;;5082247;28;1271;-67
2022/05/07 02:14:13;;;;;;;;;;;19.10;61.90;;;;;;5084159;28;1479;-68
2022/05/07 02:16:39;;;;;;;;;;;19.00;61.50;;;;;;5074005;28;1263;-67
2022/05/07 02:19:04;;;;;;;;;;;19.00;61.50;;;;;;5083524;28;1251;-67
2022/05/07 02:21:29;;;;;;;;;;;19.00;61.50;;;;;;5072391;28;1243;-68
2022/05/07 02:23:55;;;;;;;;;;;19.00;61.50;;;;;;5084891;28;1327;-67
2022/05/07 02:26:20;;;;;;;;;;;19.10;61.60;;;;;;5075539;28;1095;-67
2022/05/07 02:28:47;;;;;;;;;;;19.00;61.50;;;;;;5093648;28;789;-68
2022/05/07 02:31:12;;;;;;;;;;;19.00;61.60;;;;;;5075524;28;1996;-67
2022/05/07 02:33:38;;;;;;;;;;;19.10;61.60;;;;;;5075530;28;1343;-67
2022/05/07 02:36:03;;;;;;;;;;;19.00;61.60;;;;;;5093765;28;869;-67
2022/05/07 02:38:29;;;;;;;;;;;19.00;61.60;;;;;;5093517;28;951;-68
2022/05/07 02:43:38;;;;;;;;;;;19.00;61.60;;;;;;5093465;28;1255;-68
2022/05/07 02:46:04;;;;;;;;;;;19.00;61.60;;;;;;5093625;28;880;-68
2022/05/07 02:48:35;;;;;;;;;;;19.00;61.70;;;;;;5093436;28;777;-67
2022/05/07 02:51:01;;;;;;;;;;;19.00;61.60;;;;;;5093046;28;1953;-68
2022/05/07 02:53:26;;;;;;;;;;;19.00;61.70;;;;;;5093066;28;1279;-68
2022/05/07 02:55:51;;;;;;;;;;;19.00;61.70;;;;;;5074576;28;894;-68
2022/05/07 02:58:17;;;;;;;;;;;19.00;61.70;;;;;;5093457;28;705;-68
2022/05/07 03:00:42;;;;;;;;;;;19.00;61.70;;;;;;5093283;28;714;-67
2022/05/07 03:03:08;;;;;;;;;;;19.00;61.70;;;;;;5093097;28;1355;-67
2022/05/07 03:05:33;;;;;;;;;;;19.00;61.70;;;;;;5075157;28;979;-67
2022/05/07 03:07:59;;;;;;;;;;;19.00;61.70;;;;;;5074862;28;975;-67
2022/05/07 03:10:25;;;;;;;;;;;19.00;61.80;;;;;;5092656;28;1897;-67
2022/05/07 03:12:51;;;;;;;;;;;19.00;61.70;;;;;;5093134;28;836;-67
2022/05/07 03:15:16;;;;;;;;;;;19.00;61.80;;;;;;5093127;28;1283;-67
2022/05/07 03:17:41;;;;;;;;;;;19.00;61.80;;;;;;5071622;28;1307;-67
2022/05/07 03:20:11;;;;;;;;;;;19.00;61.80;;;;;;5071422;28;805;-68
2022/05/07 03:22:37;;;;;;;;;;;19.00;61.80;;;;;;5072848;28;837;-69
2022/05/07 03:25:03;;;;;;;;;;;19.00;61.80;;;;;;5072151;28;1314;-67
2022/05/07 03:27:29;;;;;;;;;;;19.00;61.80;;;;;;5072776;28;1007;-67
2022/05/07 03:29:54;;;;;;;;;;;19.00;61.80;;;;;;5072482;28;1910;-67
2022/05/07 03:32:20;;;;;;;;;;;19.00;61.90;;;;;;5072752;28;931;-68
2022/05/07 03:34:45;;;;;;;;;;;19.00;61.90;;;;;;5071212;28;1215;-68
2022/05/07 03:37:11;;;;;;;;;;;19.00;61.90;;;;;;5072590;28;889;-68
2022/05/07 03:39:37;;;;;;;;;;;19.00;61.90;;;;;;5072247;28;904;-68
2022/05/07 03:42:02;;;;;;;;;;;19.00;61.90;;;;;;5072639;28;848;-68
2022/05/07 03:44:28;;;;;;;;;;;19.00;61.90;;;;;;5071224;28;1220;-68
2022/05/07 03:46:53;;;;;;;;;;;19.00;62.00;;;;;;5072646;28;865;-68
2022/05/07 03:49:18;;;;;;;;;;;19.00;62.00;;;;;;5072122;28;1973;-67
2022/05/07 03:54:28;;;;;;;;;;;19.00;62.00;;;;;;5072558;28;1335;-67
2022/05/07 03:56:53;;;;;;;;;;;19.00;62.00;;;;;;5071510;28;889;-67
2022/05/07 03:59:19;;;;;;;;;;;19.00;62.00;;;;;;5072180;28;1038;-68
2022/05/07 04:01:44;;;;;;;;;;;19.00;62.00;;;;;;5071240;28;1114;-68
2022/05/07 04:04:10;;;;;;;;;;;19.00;62.00;;;;;;5072243;28;1201;-68
2022/05/07 04:06:35;;;;;;;;;;;19.00;62.00;;;;;;5069899;28;1806;-68
2022/05/07 04:09:01;;;;;;;;;;;19.00;62.10;;;;;;5094656;28;1897;-67
2022/05/07 04:11:26;;;;;;;;;;;19.00;62.00;;;;;;5096257;28;1150;-67
2022/05/07 04:13:51;;;;;;;;;;;19.00;62.00;;;;;;5096557;28;1200;-68
2022/05/07 04:16:17;;;;;;;;;;;19.00;62.10;;;;;;5078212;28;951;-67
2022/05/07 04:18:42;;;;;;;;;;;19.00;62.10;;;;;;5096062;28;1374;-67
2022/05/07 04:21:08;;;;;;;;;;;19.00;62.10;;;;;;5095815;28;915;-68
2022/05/07 04:23:33;;;;;;;;;;;19.00;62.10;;;;;;5095908;28;1291;-67
2022/05/07 04:25:59;;;;;;;;;;;19.00;62.10;;;;;;5077906;28;957;-68
2022/05/07 04:28:24;;;;;;;;;;;19.00;62.10;;;;;;5077963;28;880;-68
2022/05/07 04:30:49;;;;;;;;;;;19.00;62.10;;;;;;5095787;28;1964;-68
2022/05/07 04:33:15;;;;;;;;;;;19.00;62.10;;;;;;5075968;28;1915;-68
2022/05/07 04:35:40;;;;;;;;;;;19.00;62.10;;;;;;5075440;28;1703;-68
2022/05/07 04:38:06;;;;;;;;;;;19.00;62.20;;;;;;5093508;28;1362;-68
2022/05/07 04:40:31;;;;;;;;;;;19.00;62.20;;;;;;5057150;28;981;-68
2022/05/07 04:42:57;;;;;;;;;;;19.00;62.20;;;;;;5095632;28;1304;-68
2022/05/07 04:45:22;;;;;;;;;;;19.00;62.20;;;;;;5077537;28;1197;-69
2022/05/07 04:47:48;;;;;;;;;;;19.00;62.20;;;;;;5095661;28;1087;-69
2022/05/07 04:50:13;;;;;;;;;;;19.00;62.90;;;;;;5095169;28;1898;-67
2022/05/07 04:52:39;;;;;;;;;;;19.00;62.20;;;;;;5077370;28;1216;-67
2022/05/07 04:55:04;;;;;;;;;;;19.00;62.20;;;;;;5076721;28;1986;-68
2022/05/07 04:57:30;;;;;;;;;;;19.00;62.20;;;;;;5095469;28;1219;-68
2022/05/07 04:59:56;;;;;;;;;;;19.00;62.20;;;;;;5095558;28;1138;-68
2022/05/07 05:02:21;;;;;;;;;;;19.00;62.20;;;;;;5095424;28;805;-69
2022/05/07 05:04:47;;;;;;;;;;;19.00;62.20;;;;;;5094829;28;1216;-69
2022/05/07 05:07:12;;;;;;;;;;;19.00;62.20;;;;;;5077281;28;832;-70
2022/05/07 05:09:37;;;;;;;;;;;19.00;62.20;;;;;;5076927;28;1893;-69
2022/05/07 05:12:03;;;;;;;;;;;19.00;62.20;;;;;;5095275;28;927;-70
2022/05/07 05:17:12;;;;;;;;;;;19.00;62.30;;;;;;5092359;28;1921;-70
2022/05/07 05:19:38;;;;;;;;;;;19.00;62.30;;;;;;5094084;28;1291;-67
2022/05/07 05:22:03;;;;;;;;;;;19.00;62.30;;;;;;5095093;28;1030;-67
2022/05/07 05:24:29;;;;;;;;;;;19.00;62.30;;;;;;5076656;28;1307;-66
2022/05/07 05:26:54;;;;;;;;;;;19.00;62.30;;;;;;5077419;28;792;-67
2022/05/07 05:29:20;;;;;;;;;;;19.00;62.20;;;;;;5094618;28;1968;-67
2022/05/07 05:31:45;;;;;;;;;;;19.00;62.40;;;;;;5094925;28;883;-67
2022/05/07 05:34:10;;;;;;;;;;;19.00;62.30;;;;;;5095243;28;1315;-66
2022/05/07 05:36:36;;;;;;;;;;;19.00;62.30;;;;;;5094830;28;963;-66
2022/05/07 05:39:05;;;;;;;;;;;19.00;62.00;;;;;;5076389;28;955;-67
2022/05/07 05:41:30;;;;;;;;;;;19.00;62.00;;;;;;5077024;28;844;-67
2022/05/07 05:43:55;;;;;;;;;;;19.00;61.80;;;;;;5094522;28;1318;-66
2022/05/07 05:46:21;;;;;;;;;;;19.10;61.60;;;;;;5094498;28;949;-67
2022/05/07 05:48:46;;;;;;;;;;;19.10;61.40;;;;;;5094559;28;936;-68
2022/05/07 05:51:12;;;;;;;;;;;19.10;61.20;;;;;;5076526;28;1953;-67
2022/05/07 05:53:37;;;;;;;;;;;19.20;61.10;;;;;;5094519;28;1287;-67
2022/05/07 05:56:03;;;;;;;;;;;19.20;61.00;;;;;;5059534;28;1361;-67
2022/05/07 05:58:33;;;;;;;;;;;19.20;60.90;;;;;;5090622;28;1684;-67
2022/05/07 06:01:02;;;;;;;;;;;19.20;60.70;;;;;;5092580;28;2015;-67
2022/05/07 06:03:28;;;;;;;;;;;19.20;60.60;;;;;;5076095;28;1202;-67
2022/05/07 06:05:53;;;;;;;;;;;19.20;60.60;;;;;;5076052;28;1316;-67
2022/05/07 06:08:19;;;;;;;;;;;19.20;60.50;;;;;;5094224;28;947;-66
2022/05/07 06:10:44;;;;;;;;;;;19.20;60.50;;;;;;5093835;28;1965;-66
2022/05/07 06:13:10;;;;;;;;;;;19.20;60.30;;;;;;5094632;28;1220;-66
2022/05/07 06:15:37;;;;;;;;;;;19.20;60.40;;;;;;5075608;28;1071;-67
2022/05/07 06:18:02;;;;;;;;;;;19.20;60.30;;;;;;5075752;28;1347;-66
2022/05/07 06:20:27;;;;;;;;;;;19.20;60.30;;;;;;5075477;28;1172;-66
2022/05/07 06:22:57;;;;;;;;;;;19.20;60.20;;;;;;5093945;28;825;-66
2022/05/07 06:28:06;;;;;;;;;;;19.20;60.20;;;;;;5093784;28;616;-69
2022/05/07 06:30:35;;;;;;;;;;;19.20;60.10;;;;;;5092616;28;1973;-68
2022/05/07 06:33:00;;;;;;;;;;;19.20;60.20;;;;;;5093788;28;852;-68
2022/05/07 06:35:26;;;;;;;;;;;19.20;60.20;;;;;;5058757;28;1457;-67
2022/05/07 06:37:51;;;;;;;;;;;19.20;60.20;;;;;;5093806;28;939;-67
2022/05/07 06:40:17;;;;;;;;;;;19.20;60.40;;;;;;5075204;28;805;-68
2022/05/07 06:42:44;;;;;;;;;;;19.20;60.20;;;;;;5093430;28;892;-67
2022/05/07 06:45:11;;;;;;;;;;;19.20;60.20;;;;;;5093301;28;1188;-68
2022/05/07 06:47:36;;;;;;;;;;;19.20;60.20;;;;;;5075538;28;805;-68
2022/05/07 06:50:02;;;;;;;;;;;19.20;60.30;;;;;;5093014;28;1910;-68
2022/05/07 06:52:28;;;;;;;;;;;19.20;60.30;;;;;;5075414;28;801;-67
2022/05/07 06:54:54;;;;;;;;;;;19.20;60.30;;;;;;5075273;28;1319;-71
2022/05/07 06:57:19;;;;;;;;;;;19.30;60.50;;;;;;5093163;28;849;-71
2022/05/07 06:59:45;;;;;;;;;;;19.20;60.40;;;;;;5074961;28;915;-70
2022/05/07 07:02:10;;;;;;;;;;;19.20;60.50;;;;;;5074127;28;2237;-69
2022/05/07 07:04:36;;;;;;;;;;;19.20;60.40;;;;;;5093019;28;1282;-68
2022/05/07 07:07:01;;;;;;;;;;;19.20;60.60;;;;;;5093105;28;1138;-68
2022/05/07 07:09:26;;;;;;;;;;;19.20;60.50;;;;;;5092652;28;1909;-69
2022/05/07 07:11:52;;;;;;;;;;;19.20;60.70;;;;;;5092818;28;1060;-69
2022/05/07 07:14:17;;;;;;;;;;;19.20;60.60;;;;;;5091733;28;1365;-68
2022/05/07 07:16:43;;;;;;;;;;;19.20;60.60;;;;;;5093041;28;955;-68
2022/05/07 07:19:09;;;;;;;;;;;19.20;60.50;;;;;;5092693;28;1344;-68
2022/05/07 07:21:35;;;;;;;;;;;19.20;60.70;;;;;;5092808;28;950;-68
2022/05/07 07:24:00;;;;;;;;;;;19.20;60.80;;;;;;5092812;28;1232;-67
2022/05/07 07:26:26;;;;;;;;;;;19.20;61.50;;;;;;5074139;28;1207;-67
2022/05/07 07:28:52;;;;;;;;;;;19.20;60.90;;;;;;5089964;28;1246;-68
2022/05/07 07:31:17;;;;;;;;;;;19.20;60.90;;;;;;5074687;28;1975;-67
2022/05/07 07:33:43;;;;;;;;;;;19.20;61.10;;;;;;5074625;28;1290;-67
2022/05/07 07:36:09;;;;;;;;;;;19.20;61.30;;;;;;5074787;28;1187;-70
2022/05/07 07:38:35;;;;;;;;;;;19.20;61.30;;;;;;5092823;28;833;-68
2022/05/07 07:41:01;;;;;;;;;;;19.20;61.30;;;;;;5092420;28;825;-68
2022/05/07 07:43:26;;;;;;;;;;;19.20;61.40;;;;;;5067943;28;2297;-68
2022/05/07 07:48:35;;;;;;;;;;;19.20;61.40;;;;;;5117335;28;592;-68
2022/05/07 07:51:01;;;;;;;;;;;19.20;61.40;;;;;;5115695;28;1906;-68
2022/05/07 07:53:26;;;;;;;;;;;19.20;61.40;;;;;;5104588;28;2219;-68
2022/05/07 07:55:52;;;;;;;;;;;19.20;61.50;;;;;;5078113;28;1477;-68
2022/05/07 07:58:17;;;;;;;;;;;19.20;61.40;;;;;;5078355;28;1008;-68
2022/05/07 08:00:44;;;;;;;;;;;19.20;61.40;;;;;;5060751;28;1550;-68
2022/05/07 08:03:16;;;;;;;;;;;19.10;61.40;;;;;;5078340;28;1616;-68
2022/05/07 08:05:42;;;;;;;;;;;19.20;61.40;;;;;;5078265;28;869;-68
2022/05/07 08:13:37;;;;;;;;;;;19.10;61.40;;;;;;5096526;28;1263;-68
2022/05/07 08:16:02;;;;;;;;;;;19.20;61.50;;;;;;5078363;28;845;-68
2022/05/07 08:18:28;;;;;;;;;;;19.20;61.50;;;;;;5096358;28;1686;-69
2022/05/07 08:20:54;;;;;;;;;;;19.10;61.40;;;;;;5074797;28;1832;-68
2022/05/07 08:23:19;;;;;;;;;;;19.20;61.50;;;;;;5077671;28;1276;-68
2022/05/07 08:25:45;;;;;;;;;;;19.10;61.40;;;;;;5094999;28;1001;-68
2022/05/07 08:28:10;;;;;;;;;;;19.10;61.40;;;;;;5096135;28;809;-68
2022/05/07 08:30:39;;;;;;;;;;;19.10;61.40;;;;;;5077045;28;2306;-68
2022/05/07 08:33:05;;;;;;;;;;;19.10;61.40;;;;;;5069538;28;1321;-68
2022/05/07 08:35:30;;;;;;;;;;;19.10;61.40;;;;;;5060941;28;1377;-68
2022/05/07 08:37:56;;;;;;;;;;;19.10;61.40;;;;;;5077686;28;1123;-68
2022/05/07 08:40:22;;;;;;;;;;;19.10;61.50;;;;;;5095892;28;765;-68
2022/05/07 08:42:47;;;;;;;;;;;19.10;61.40;;;;;;5060756;28;1144;-68
2022/05/07 08:45:13;;;;;;;;;;;19.10;61.40;;;;;;5095688;28;1191;-68
2022/05/07 08:47:39;;;;;;;;;;;19.10;61.40;;;;;;5077903;28;787;-68
2022/05/07 08:50:06;;;;;;;;;;;19.10;61.50;;;;;;5077299;28;1902;-68
2022/05/07 08:52:32;;;;;;;;;;;19.10;61.40;;;;;;5075195;28;1730;-68
2022/05/07 08:54:58;;;;;;;;;;;19.10;61.50;;;;;;5076695;28;1209;-68
2022/05/07 08:57:24;;;;;;;;;;;19.10;61.50;;;;;;5095354;28;836;-68
2022/05/07 08:59:53;;;;;;;;;;;19.10;61.40;;;;;;5095252;28;820;-68
2022/05/07 09:02:20;;;;;;;;;;;19.10;61.40;;;;;;5095183;28;884;-68
2022/05/07 09:04:55;;;;;;;;;;;19.10;61.40;;;;;;5093243;28;1708;-68
2022/05/07 09:07:21;;;;;;;;;;;19.10;61.40;;;;;;5077450;28;816;-68
2022/05/07 09:09:47;;;;;;;;;;;19.10;61.40;;;;;;5094885;28;1903;-68
2022/05/07 09:12:20;;;;;;;;;;;19.10;61.40;;;;;;5077161;28;817;-68
2022/05/07 09:14:46;;;;;;;;;;;19.10;61.40;;;;;;5076713;28;1337;-68
2022/05/07 09:17:11;;;;;;;;;;;19.10;61.40;;;;;;5077064;28;1310;-68
2022/05/07 09:19:37;;;;;;;;;;;19.10;61.50;;;;;;5075189;28;1366;-67
2022/05/07 09:22:06;;;;;;;;;;;19.10;61.50;;;;;;5085010;28;1251;-68
2022/05/07 09:24:31;;;;;;;;;;;19.10;61.50;;;;;;5077320;28;1256;-68
2022/05/07 09:26:57;;;;;;;;;;;19.10;61.50;;;;;;5060036;28;921;-68
2022/05/07 09:29:25;;;;;;;;;;;19.10;61.50;;;;;;5076220;28;1988;-68
2022/05/07 09:31:51;;;;;;;;;;;19.10;61.50;;;;;;5076726;28;1089;-68
2022/05/07 09:37:01;;;;;;;;;;;19.10;61.60;;;;;;5078801;28;636;-68
2022/05/07 09:39:30;;;;;;;;;;;19.10;61.70;;;;;;5075705;28;1293;-68
2022/05/07 09:41:58;;;;;;;;;;;19.10;62.90;;;;;;5076503;28;996;-69
2022/05/07 09:44:26;;;;;;;;;;;19.20;63.10;;;;;;5076853;28;1217;-67
2022/05/07 09:46:52;;;;;;;;;;;19.30;62.00;;;;;;5076905;28;812;-67
2022/05/07 09:49:17;;;;;;;;;;;19.30;61.60;;;;;;5076155;28;1965;-67
2022/05/07 09:51:42;;;;;;;;;;;19.40;60.80;;;;;;5076375;28;1090;-67
2022/05/07 09:59:36;;;;;;;;;;;19.40;60.20;;;;;;5078700;28;695;-67
2022/05/07 10:02:02;;;;;;;;;;;19.40;59.30;;;;;;5076255;28;882;-67
2022/05/07 10:04:46;;;;;;;;;;;19.40;59.30;;;;;;5094093;28;1209;-67
2022/05/07 10:07:30;;;;;;;;;;;19.40;58.90;;;;;;5094480;28;825;-67
2022/05/07 10:09:56;;;;;;;;;;;19.40;58.60;;;;;;5093766;28;1961;-67
2022/05/07 10:12:21;;;;;;;;;;;19.40;58.70;;;;;;5094033;28;769;-67
2022/05/07 10:14:47;;;;;;;;;;;19.40;58.80;;;;;;5075987;28;1359;-67
2022/05/07 10:17:13;;;;;;;;;;;19.40;58.20;;;;;;5094475;28;659;-67
2022/05/07 10:19:39;;;;;;;;;;;19.40;57.60;;;;;;5056450;28;1395;-67
2022/05/07 10:22:26;;;;;;;;;;;19.40;57.50;;;;;;5055891;28;1054;-67
2022/05/07 10:25:02;;;;;;;;;;;19.40;57.10;;;;;;5073435;28;1269;-67
2022/05/07 10:27:46;;;;;;;;;;;19.40;57.40;;;;;;5055991;28;852;-67
2022/05/07 10:30:15;;;;;;;;;;;19.40;56.90;;;;;;5038427;28;1973;-67
2022/05/07 10:32:55;;;;;;;;;;;19.40;57.30;;;;;;5055751;28;809;-67
2022/05/07 10:35:40;;;;;;;;;;;19.40;57.10;;;;;;5055644;28;1335;-67
2022/05/07 10:38:09;;;;;;;;;;;19.40;57.10;;;;;;5073383;28;880;-67
2022/05/07 10:40:34;;;;;;;;;;;19.40;57.30;;;;;;5055180;28;887;-67
2022/05/07 10:43:00;;;;;;;;;;;19.40;56.80;;;;;;5073600;28;792;-67
2022/05/07 10:45:27;;;;;;;;;;;19.40;57.30;;;;;;5055298;28;1414;-67
2022/05/07 10:47:53;;;;;;;;;;;19.50;56.80;;;;;;5073333;28;817;-69
2022/05/07 10:50:18;;;;;;;;;;;19.40;56.20;;;;;;5072794;28;1898;-67
2022/05/07 10:52:53;;;;;;;;;;;19.50;55.60;;;;;;5055132;28;1293;-67
2022/05/07 10:55:22;;;;;;;;;;;19.50;55.80;;;;;;5055099;28;1221;-67
2022/05/07 10:57:48;;;;;;;;;;;19.50;55.30;;;;;;5055243;28;1258;-67
2022/05/07 11:00:14;;;;;;;;;;;19.50;55.40;;;;;;5055086;28;1187;-67
2022/05/07 11:02:40;;;;;;;;;;;19.50;55.60;;;;;;5055523;28;868;-67
2022/05/07 11:05:06;;;;;;;;;;;19.50;55.80;;;;;;5072871;28;1270;-67
2022/05/07 11:07:32;;;;;;;;;;;19.50;56.00;;;;;;5073061;28;880;-67
2022/05/07 11:09:58;;;;;;;;;;;19.50;56.20;;;;;;5054601;28;1894;-67
2022/05/07 11:12:24;;;;;;;;;;;19.50;56.70;;;;;;5072977;28;860;-67
2022/05/07 11:14:51;;;;;;;;;;;19.40;57.30;;;;;;5072757;28;1173;-67
2022/05/07 11:17:27;;;;;;;;;;;19.40;55.50;;;;;;5087605;28;2301;-66
2022/05/07 11:19:52;;;;;;;;;;;19.40;55.60;;;;;;5091158;28;1075;-66
2022/05/07 11:22:18;;;;;;;;;;;19.40;55.90;;;;;;5092865;28;1207;-66
2022/05/07 11:24:43;;;;;;;;;;;19.40;55.70;;;;;;5074350;28;1407;-66
2022/05/07 11:27:11;;;;;;;;;;;19.40;55.80;;;;;;5093286;28;1079;-66
2022/05/07 11:29:36;;;;;;;;;;;19.50;55.40;;;;;;5092804;28;1902;-67
2022/05/07 11:32:04;;;;;;;;;;;19.50;54.70;;;;;;5074926;28;805;-66
2022/05/07 11:34:31;;;;;;;;;;;19.50;54.70;;;;;;5074803;28;1306;-66
2022/05/07 11:36:57;;;;;;;;;;;19.50;54.20;;;;;;5093021;28;817;-67
2022/05/07 11:39:23;;;;;;;;;;;19.50;54.90;;;;;;5057637;28;1336;-66
2022/05/07 11:41:55;;;;;;;;;;;19.50;54.90;;;;;;5092802;28;836;-66
2022/05/07 11:47:20;;;;;;;;;;;19.50;55.10;;;;;;5068868;28;1153;-67
2022/05/07 11:49:45;;;;;;;;;;;19.50;55.40;;;;;;5074501;28;1894;-67
2022/05/07 11:52:11;;;;;;;;;;;19.50;55.20;;;;;;5074714;28;1169;-67
2022/05/07 11:54:36;;;;;;;;;;;19.50;55.30;;;;;;5074531;28;1229;-66
2022/05/07 11:57:02;;;;;;;;;;;19.50;55.00;;;;;;5074990;28;754;-67
2022/05/07 11:59:28;;;;;;;;;;;19.60;54.80;;;;;;5074604;28;873;-67
2022/05/07 12:01:53;;;;;;;;;;;19.50;54.80;;;;;;5074537;28;967;-67
2022/05/07 12:04:19;;;;;;;;;;;19.50;54.90;;;;;;5074592;28;1204;-67
2022/05/07 12:06:55;;;;;;;;;;;19.50;55.30;;;;;;5091615;28;1151;-67
2022/05/07 12:09:20;;;;;;;;;;;19.50;55.20;;;;;;5073696;28;2270;-68
2022/05/07 12:11:46;;;;;;;;;;;19.50;54.80;;;;;;5074046;28;1079;-68
2022/05/07 12:14:11;;;;;;;;;;;19.60;54.60;;;;;;5074443;28;1295;-68
2022/05/07 12:19:27;;;;;;;;;;;19.60;54.80;;;;;;5075462;28;1946;-68
2022/05/07 12:30:05;;;;;;;;;;;19.60;54.60;;;;;;5074862;28;1914;-68
2022/05/07 12:32:31;;;;;;;;;;;19.60;54.10;;;;;;5077375;28;1799;-68
2022/05/07 12:34:56;;;;;;;;;;;19.60;54.60;;;;;;5094305;28;1279;-68
2022/05/07 12:37:21;;;;;;;;;;;19.60;54.60;;;;;;5060544;28;1302;-68
2022/05/07 12:39:47;;;;;;;;;;;19.60;54.80;;;;;;5076691;28;1103;-68
2022/05/07 12:42:13;;;;;;;;;;;19.60;55.50;;;;;;5095490;28;821;-68
2022/05/07 12:44:41;;;;;;;;;;;19.60;54.90;;;;;;5077155;28;1200;-68
2022/05/07 12:47:07;;;;;;;;;;;19.60;55.00;;;;;;5095291;28;730;-68
2022/05/07 12:49:32;;;;;;;;;;;19.60;56.00;;;;;;5095265;28;1898;-68
2022/05/07 12:51:57;;;;;;;;;;;19.60;55.30;;;;;;5094844;28;1006;-68
2022/05/07 12:54:23;;;;;;;;;;;19.60;54.80;;;;;;5077092;28;1216;-68
2022/05/07 12:56:48;;;;;;;;;;;19.60;54.60;;;;;;5095368;28;857;-68
2022/05/07 12:59:14;;;;;;;;;;;19.60;54.90;;;;;;5076831;28;1077;-68
2022/05/07 13:01:39;;;;;;;;;;;19.60;54.50;;;;;;5077071;28;797;-68
2022/05/07 13:04:05;;;;;;;;;;;19.60;54.40;;;;;;5095328;28;1310;-68
2022/05/07 13:06:30;;;;;;;;;;;19.60;54.70;;;;;;5076366;28;1905;-68
2022/05/07 13:08:58;;;;;;;;;;;19.60;54.40;;;;;;5095259;28;1157;-68
2022/05/07 13:11:24;;;;;;;;;;;19.60;54.20;;;;;;5076371;28;1937;-68
2022/05/07 13:13:50;;;;;;;;;;;19.60;54.80;;;;;;5076886;28;1283;-68
2022/05/07 13:16:16;;;;;;;;;;;19.60;54.80;;;;;;5076147;28;1834;-68
2022/05/07 13:18:41;;;;;;;;;;;19.60;54.50;;;;;;5094812;28;1186;-68
2022/05/07 13:21:06;;;;;;;;;;;19.60;54.50;;;;;;5076004;28;2188;-68
2022/05/07 13:23:32;;;;;;;;;;;19.60;55.00;;;;;;5094658;28;1256;-68
2022/05/07 13:25:57;;;;;;;;;;;19.60;55.10;;;;;;5076402;28;2192;-67
2022/05/07 13:28:23;;;;;;;;;;;19.60;55.40;;;;;;5076447;28;1081;-68
2022/05/07 13:30:48;;;;;;;;;;;19.60;54.90;;;;;;5076009;28;1901;-68
2022/05/07 13:33:14;;;;;;;;;;;19.60;54.90;;;;;;5076565;28;1212;-68
2022/05/07 13:35:39;;;;;;;;;;;19.60;55.20;;;;;;5076666;28;1302;-68
2022/05/07 13:38:05;;;;;;;;;;;19.60;55.00;;;;;;5076730;28;829;-68
2022/05/07 13:40:30;;;;;;;;;;;19.60;55.00;;;;;;5076286;28;944;-68
2022/05/07 13:42:55;;;;;;;;;;;19.60;54.80;;;;;;5076677;28;1015;-68
2022/05/07 13:45:21;;;;;;;;;;;19.60;54.70;;;;;;5076317;28;1195;-68
2022/05/07 13:47:47;;;;;;;;;;;19.60;55.10;;;;;;5094597;28;797;-68
2022/05/07 13:50:12;;;;;;;;;;;19.60;55.20;;;;;;5092907;28;1886;-67
2022/05/07 13:52:38;;;;;;;;;;;19.60;55.30;;;;;;5093231;28;896;-68
2022/05/07 13:55:04;;;;;;;;;;;19.60;55.50;;;;;;5076370;28;1208;-68
2022/05/07 13:57:29;;;;;;;;;;;19.60;55.70;;;;;;5094719;28;882;-68
2022/05/07 13:59:55;;;;;;;;;;;19.60;55.30;;;;;;5076179;28;790;-68
2022/05/07 14:02:20;;;;;;;;;;;19.60;55.00;;;;;;5076269;28;821;-68
2022/05/07 14:04:46;;;;;;;;;;;19.60;54.80;;;;;;5076319;28;1213;-68
2022/05/07 14:07:14;;;;;;;;;;;19.60;54.80;;;;;;5093090;28;2284;-67
2022/05/07 14:09:40;;;;;;;;;;;19.70;54.70;;;;;;5076290;28;1959;-68
2022/05/07 14:12:06;;;;;;;;;;;19.70;54.80;;;;;;5076146;28;1664;-68
2022/05/07 14:14:31;;;;;;;;;;;19.60;55.20;;;;;;5093045;28;1208;-68
2022/05/07 14:16:57;;;;;;;;;;;19.70;55.40;;;;;;5092698;28;1358;-68
2022/05/07 14:19:22;;;;;;;;;;;19.60;55.80;;;;;;5075661;28;1335;-68
2022/05/07 14:21:48;;;;;;;;;;;19.60;55.60;;;;;;5094159;28;920;-68
2022/05/07 14:24:13;;;;;;;;;;;19.60;55.80;;;;;;5093942;28;1228;-68
2022/05/07 14:26:38;;;;;;;;;;;19.60;56.00;;;;;;5059693;28;890;-68
2022/05/07 14:29:04;;;;;;;;;;;19.60;56.10;;;;;;5093955;28;782;-68
2022/05/07 14:31:29;;;;;;;;;;;19.60;56.60;;;;;;5075484;28;1906;-68
2022/05/07 14:33:55;;;;;;;;;;;19.60;56.30;;;;;;5075632;28;1180;-68
2022/05/07 14:36:21;;;;;;;;;;;19.60;56.70;;;;;;5093755;28;820;-68
2022/05/07 14:38:47;;;;;;;;;;;19.60;57.00;;;;;;5075687;28;809;-68
2022/05/07 14:41:12;;;;;;;;;;;19.60;56.80;;;;;;5075608;28;878;-68
2022/05/07 14:43:38;;;;;;;;;;;19.60;56.50;;;;;;5093753;28;1121;-68
2022/05/07 14:46:03;;;;;;;;;;;19.60;57.00;;;;;;5075389;28;833;-68
2022/05/07 14:48:29;;;;;;;;;;;19.60;57.00;;;;;;5058972;28;987;-68
2022/05/07 14:50:55;;;;;;;;;;;19.60;56.80;;;;;;5075037;28;1906;-68
2022/05/07 14:53:21;;;;;;;;;;;19.50;56.90;;;;;;5093281;28;1247;-68
2022/05/07 14:55:46;;;;;;;;;;;19.60;56.80;;;;;;5093606;28;1034;-68
2022/05/07 14:58:14;;;;;;;;;;;19.50;56.90;;;;;;5075349;28;1007;-68
2022/05/07 15:00:40;;;;;;;;;;;19.60;56.90;;;;;;5093090;28;905;-68
2022/05/07 15:03:05;;;;;;;;;;;19.60;56.70;;;;;;5093529;28;873;-68
2022/05/07 15:05:31;;;;;;;;;;;19.60;56.80;;;;;;5093314;28;1284;-68
2022/05/07 15:10:35;;;;;;;;;;;19.50;57.40;;;;;;5093427;28;817;-68
2022/05/07 15:10:42;;;;;;;;;;;19.50;57.40;;;;;;5077556;28;1898;-68
2022/05/07 15:13:09;;;;;;;;;;;19.50;57.70;;;;;;5075251;28;966;-68
2022/05/07 15:15:34;;;;;;;;;;;19.50;57.60;;;;;;5075230;28;1233;-68
2022/05/07 15:17:59;;;;;;;;;;;19.50;57.50;;;;;;5075126;28;1659;-68